sensor_id;sensor_type;location;lat;lon;timestamp;temperature;humidity
13638;DHT22;6892;50.916;4.356;2022-07-04T00:14:01;14.10;99.90
13638;DHT22;6892;50.916;4.356;2022-07-04T00:32:18;13.90;99.90
13638;DHT22;6892;50.916;4.356;2022-07-04T00:35:07;13.80;99.90
13638;DHT22;6892;50.916;4.356;2022-07-04T02:00:12;13.20;99.90
13638;DHT22;6892;50.916;4.356;2022-07-04T02:03:07;13.20;99.90
13638;DHT22;6892;50.916;4.356;2022-07-04T02:09:23;13.20;99.90
13638;DHT22;6892;50.916;4.356;2022-07-04T02:12:12;13.10;99.90
13638;DHT22;6892;50.916;4.356;2022-07-04T04:17:52;13.00;99.90
13638;DHT22;6892;50.916;4.356;2022-07-04T04:23:52;13.10;99.90
13638;DHT22;6892;50.916;4.356;2022-07-04T04:32:18;13.20;99.90
13638;DHT22;6892;50.916;4.356;2022-07-04T05:33:51;20.30;7.50
13638;DHT22;6892;50.916;4.356;2022-07-04T05:36:26;19.40;1.00
13638;DHT22;6892;50.916;4.356;2022-07-04T05:48:22;17.10;1.00
13638;DHT22;6892;50.916;4.356;2022-07-04T06:07:43;17.40;1.00
13638;DHT22;6892;50.916;4.356;2022-07-04T06:16:52;17.20;1.00
13638;DHT22;6892;50.916;4.356;2022-07-04T06:19:34;17.30;1.00
13638;DHT22;6892;50.916;4.356;2022-07-04T06:56:42;22.80;99.90
13638;DHT22;6892;50.916;4.356;2022-07-04T07:07:04;23.60;99.90
13638;DHT22;6892;50.916;4.356;2022-07-04T08:26:21;26.00;99.90
13638;DHT22;6892;50.916;4.356;2022-07-04T08:28:58;25.90;99.90
13638;DHT22;6892;50.916;4.356;2022-07-04T08:31:44;25.80;99.90
13638;DHT22;6892;50.916;4.356;2022-07-04T08:34:25;25.80;99.90
13638;DHT22;6892;50.916;4.356;2022-07-04T08:36:56;25.80;99.90
13638;DHT22;6892;50.916;4.356;2022-07-04T08:39:42;26.00;99.90
13638;DHT22;6892;50.916;4.356;2022-07-04T08:42:21;26.10;99.90
13638;DHT22;6892;50.916;4.356;2022-07-04T08:44:58;25.90;99.90
13638;DHT22;6892;50.916;4.356;2022-07-04T08:47:49;25.80;99.90
13638;DHT22;6892;50.916;4.356;2022-07-04T08:50:35;25.90;99.90
13638;DHT22;6892;50.916;4.356;2022-07-04T08:53:10;25.70;99.90
13638;DHT22;6892;50.916;4.356;2022-07-04T08:55:37;26.10;99.90
13638;DHT22;6892;50.916;4.356;2022-07-04T08:58:22;25.60;99.90
13638;DHT22;6892;50.916;4.356;2022-07-04T09:00:55;25.60;99.90
13638;DHT22;6892;50.916;4.356;2022-07-04T09:03:23;25.90;99.90
13638;DHT22;6892;50.916;4.356;2022-07-04T09:05:51;25.90;99.90
13638;DHT22;6892;50.916;4.356;2022-07-04T09:08:21;26.20;99.90
13638;DHT22;6892;50.916;4.356;2022-07-04T09:10:57;26.50;99.90
13638;DHT22;6892;50.916;4.356;2022-07-04T09:19:13;26.30;99.90
13638;DHT22;6892;50.916;4.356;2022-07-04T09:21:47;26.30;99.90
13638;DHT22;6892;50.916;4.356;2022-07-04T09:24:31;26.10;99.90
13638;DHT22;6892;50.916;4.356;2022-07-04T09:27:30;26.10;99.90
13638;DHT22;6892;50.916;4.356;2022-07-04T09:32:59;26.10;99.90
13638;DHT22;6892;50.916;4.356;2022-07-04T09:41:51;25.60;99.90
13638;DHT22;6892;50.916;4.356;2022-07-04T09:45:05;25.40;99.90
13638;DHT22;6892;50.916;4.356;2022-07-04T09:47:26;24.30;99.90
13638;DHT22;6892;50.916;4.356;2022-07-04T09:50:12;24.10;99.90
13638;DHT22;6892;50.916;4.356;2022-07-04T09:53:00;24.50;99.90
13638;DHT22;6892;50.916;4.356;2022-07-04T09:56:02;24.80;99.90
13638;DHT22;6892;50.916;4.356;2022-07-04T09:58:30;24.50;99.90
13638;DHT22;6892;50.916;4.356;2022-07-04T10:01:03;24.30;99.90
13638;DHT22;6892;50.916;4.356;2022-07-04T10:03:35;23.60;99.90
13638;DHT22;6892;50.916;4.356;2022-07-04T10:06:09;23.30;99.90
13638;DHT22;6892;50.916;4.356;2022-07-04T10:08:44;23.00;99.90
13638;DHT22;6892;50.916;4.356;2022-07-04T10:32:10;24.60;99.90
13638;DHT22;6892;50.916;4.356;2022-07-04T10:35:06;24.70;99.90
13638;DHT22;6892;50.916;4.356;2022-07-04T10:44:56;25.10;99.90
13638;DHT22;6892;50.916;4.356;2022-07-04T10:47:02;25.30;99.90
13638;DHT22;6892;50.916;4.356;2022-07-04T10:49:53;25.40;99.90
13638;DHT22;6892;50.916;4.356;2022-07-04T11:04:47;25.60;99.90
13638;DHT22;6892;50.916;4.356;2022-07-04T11:43:47;26.30;99.90
13638;DHT22;6892;50.916;4.356;2022-07-04T11:58:42;26.70;99.90
13638;DHT22;6892;50.916;4.356;2022-07-04T12:13:25;25.20;99.90
13638;DHT22;6892;50.916;4.356;2022-07-04T12:25:58;25.90;99.90
13638;DHT22;6892;50.916;4.356;2022-07-04T12:38:38;26.50;99.90
13638;DHT22;6892;50.916;4.356;2022-07-04T12:41:28;26.90;99.90
13638;DHT22;6892;50.916;4.356;2022-07-04T12:44:21;27.60;99.90
13638;DHT22;6892;50.916;4.356;2022-07-04T12:47:18;27.20;99.90
13638;DHT22;6892;50.916;4.356;2022-07-04T12:49:51;26.40;99.90
13638;DHT22;6892;50.916;4.356;2022-07-04T12:52:19;26.70;99.90
13638;DHT22;6892;50.916;4.356;2022-07-04T12:54:45;26.90;99.90
13638;DHT22;6892;50.916;4.356;2022-07-04T12:57:28;26.70;99.90
13638;DHT22;6892;50.916;4.356;2022-07-04T12:59:55;26.70;99.90
13638;DHT22;6892;50.916;4.356;2022-07-04T13:02:21;27.00;99.90
13638;DHT22;6892;50.916;4.356;2022-07-04T16:11:00;24.90;99.90
13638;DHT22;6892;50.916;4.356;2022-07-04T16:13:27;24.60;99.90
13638;DHT22;6892;50.916;4.356;2022-07-04T16:15:53;24.50;99.90
13638;DHT22;6892;50.916;4.356;2022-07-04T16:18:20;24.50;99.90
13638;DHT22;6892;50.916;4.356;2022-07-04T16:20:47;24.50;99.90
13638;DHT22;6892;50.916;4.356;2022-07-04T16:23:14;24.50;99.90
13638;DHT22;6892;50.916;4.356;2022-07-04T16:25:40;24.50;99.90
13638;DHT22;6892;50.916;4.356;2022-07-04T16:28:08;24.40;99.90
13638;DHT22;6892;50.916;4.356;2022-07-04T16:30:35;24.30;99.90
13638;DHT22;6892;50.916;4.356;2022-07-04T16:33:02;24.50;99.90
13638;DHT22;6892;50.916;4.356;2022-07-04T16:35:29;24.80;99.90
13638;DHT22;6892;50.916;4.356;2022-07-04T16:37:56;24.90;99.90
13638;DHT22;6892;50.916;4.356;2022-07-04T16:40:22;24.80;99.90
13638;DHT22;6892;50.916;4.356;2022-07-04T16:42:49;24.80;99.90
13638;DHT22;6892;50.916;4.356;2022-07-04T16:45:17;24.90;99.90
13638;DHT22;6892;50.916;4.356;2022-07-04T16:47:44;24.90;99.90
13638;DHT22;6892;50.916;4.356;2022-07-04T16:50:11;24.80;99.90
13638;DHT22;6892;50.916;4.356;2022-07-04T16:52:38;24.70;99.90
13638;DHT22;6892;50.916;4.356;2022-07-04T16:55:05;24.60;99.90
13638;DHT22;6892;50.916;4.356;2022-07-04T16:57:32;24.60;99.90
13638;DHT22;6892;50.916;4.356;2022-07-04T16:59:59;24.60;99.90
13638;DHT22;6892;50.916;4.356;2022-07-04T17:02:27;24.50;99.90
13638;DHT22;6892;50.916;4.356;2022-07-04T17:04:53;24.70;99.90
13638;DHT22;6892;50.916;4.356;2022-07-04T17:07:20;24.70;99.90
13638;DHT22;6892;50.916;4.356;2022-07-04T17:09:50;24.30;99.90
13638;DHT22;6892;50.916;4.356;2022-07-04T17:12:17;23.70;99.90
13638;DHT22;6892;50.916;4.356;2022-07-04T17:14:44;23.30;99.90
13638;DHT22;6892;50.916;4.356;2022-07-04T17:17:10;23.40;99.90
13638;DHT22;6892;50.916;4.356;2022-07-04T17:19:39;23.30;99.90
13638;DHT22;6892;50.916;4.356;2022-07-04T17:22:05;23.00;99.90
13638;DHT22;6892;50.916;4.356;2022-07-04T17:24:32;23.00;99.90
13638;DHT22;6892;50.916;4.356;2022-07-04T17:26:59;22.80;99.90
13638;DHT22;6892;50.916;4.356;2022-07-04T17:29:26;22.60;99.90
13638;DHT22;6892;50.916;4.356;2022-07-04T17:31:53;22.50;99.90
13638;DHT22;6892;50.916;4.356;2022-07-04T17:34:19;22.60;99.90
13638;DHT22;6892;50.916;4.356;2022-07-04T17:36:47;22.50;99.90
13638;DHT22;6892;50.916;4.356;2022-07-04T17:39:15;22.30;99.90
13638;DHT22;6892;50.916;4.356;2022-07-04T17:41:42;22.30;99.90
13638;DHT22;6892;50.916;4.356;2022-07-04T17:44:12;22.30;99.90
13638;DHT22;6892;50.916;4.356;2022-07-04T17:46:40;22.50;99.90
13638;DHT22;6892;50.916;4.356;2022-07-04T17:49:07;22.30;99.90
13638;DHT22;6892;50.916;4.356;2022-07-04T17:51:34;22.30;99.90
13638;DHT22;6892;50.916;4.356;2022-07-04T17:54:02;22.40;99.90
13638;DHT22;6892;50.916;4.356;2022-07-04T17:56:29;22.20;99.90
13638;DHT22;6892;50.916;4.356;2022-07-04T17:58:56;22.20;99.90
13638;DHT22;6892;50.916;4.356;2022-07-04T18:01:23;22.30;99.90
13638;DHT22;6892;50.916;4.356;2022-07-04T18:03:49;22.40;99.90
13638;DHT22;6892;50.916;4.356;2022-07-04T18:06:17;22.20;99.90
13638;DHT22;6892;50.916;4.356;2022-07-04T18:08:44;22.00;99.90
13638;DHT22;6892;50.916;4.356;2022-07-04T18:11:12;21.70;99.90
13638;DHT22;6892;50.916;4.356;2022-07-04T18:13:39;21.50;99.90
13638;DHT22;6892;50.916;4.356;2022-07-04T18:16:06;21.40;99.90
13638;DHT22;6892;50.916;4.356;2022-07-04T18:18:34;21.30;99.90
13638;DHT22;6892;50.916;4.356;2022-07-04T18:21:01;21.40;99.90
13638;DHT22;6892;50.916;4.356;2022-07-04T18:23:28;21.40;99.90
13638;DHT22;6892;50.916;4.356;2022-07-04T18:25:55;21.40;99.90
13638;DHT22;6892;50.916;4.356;2022-07-04T18:28:23;21.40;99.90
13638;DHT22;6892;50.916;4.356;2022-07-04T18:30:50;21.30;99.90
13638;DHT22;6892;50.916;4.356;2022-07-04T18:33:17;21.20;99.90
13638;DHT22;6892;50.916;4.356;2022-07-04T18:35:44;21.10;99.90
13638;DHT22;6892;50.916;4.356;2022-07-04T18:38:11;20.80;99.90
13638;DHT22;6892;50.916;4.356;2022-07-04T18:40:41;20.80;65.00
13638;DHT22;6892;50.916;4.356;2022-07-04T18:43:26;20.60;53.10
13638;DHT22;6892;50.916;4.356;2022-07-04T18:45:54;20.70;38.60
13638;DHT22;6892;50.916;4.356;2022-07-04T18:48:21;20.70;37.40
13638;DHT22;6892;50.916;4.356;2022-07-04T18:50:48;20.70;18.70
13638;DHT22;6892;50.916;4.356;2022-07-04T18:53:15;20.70;10.00
13638;DHT22;6892;50.916;4.356;2022-07-04T18:55:42;20.70;1.50
13638;DHT22;6892;50.916;4.356;2022-07-04T18:58:09;20.70;1.00
13638;DHT22;6892;50.916;4.356;2022-07-04T19:00:37;20.70;1.00
13638;DHT22;6892;50.916;4.356;2022-07-04T19:03:04;20.70;1.00
13638;DHT22;6892;50.916;4.356;2022-07-04T19:05:31;20.90;1.00
13638;DHT22;6892;50.916;4.356;2022-07-04T19:07:58;20.90;1.00
13638;DHT22;6892;50.916;4.356;2022-07-04T19:10:25;20.70;1.00
13638;DHT22;6892;50.916;4.356;2022-07-04T19:12:52;20.50;1.00
13638;DHT22;6892;50.916;4.356;2022-07-04T19:15:19;20.50;1.00
13638;DHT22;6892;50.916;4.356;2022-07-04T19:17:48;20.50;1.00
13638;DHT22;6892;50.916;4.356;2022-07-04T19:20:15;20.40;1.00
13638;DHT22;6892;50.916;4.356;2022-07-04T19:22:43;20.50;1.00
13638;DHT22;6892;50.916;4.356;2022-07-04T19:25:10;20.30;1.00
13638;DHT22;6892;50.916;4.356;2022-07-04T19:27:37;20.20;1.00
13638;DHT22;6892;50.916;4.356;2022-07-04T19:30:06;20.00;1.00
13638;DHT22;6892;50.916;4.356;2022-07-04T19:32:35;19.90;1.00
13638;DHT22;6892;50.916;4.356;2022-07-04T19:35:03;19.90;1.00
13638;DHT22;6892;50.916;4.356;2022-07-04T19:37:31;19.90;1.00
13638;DHT22;6892;50.916;4.356;2022-07-04T19:39:58;19.70;1.00
13638;DHT22;6892;50.916;4.356;2022-07-04T19:42:25;19.70;1.00
13638;DHT22;6892;50.916;4.356;2022-07-04T19:44:52;19.70;1.00
13638;DHT22;6892;50.916;4.356;2022-07-04T19:47:20;19.50;1.00
13638;DHT22;6892;50.916;4.356;2022-07-04T19:49:47;19.40;1.00
13638;DHT22;6892;50.916;4.356;2022-07-04T19:55:03;19.40;1.00
13638;DHT22;6892;50.916;4.356;2022-07-04T19:57:30;19.30;1.00
13638;DHT22;6892;50.916;4.356;2022-07-04T19:59:58;19.30;1.00
13638;DHT22;6892;50.916;4.356;2022-07-04T20:02:25;19.20;1.00
13638;DHT22;6892;50.916;4.356;2022-07-04T20:04:53;19.20;1.00
13638;DHT22;6892;50.916;4.356;2022-07-04T20:07:20;19.20;1.00
13638;DHT22;6892;50.916;4.356;2022-07-04T20:09:48;19.10;1.00
13638;DHT22;6892;50.916;4.356;2022-07-04T20:12:16;19.00;1.00
13638;DHT22;6892;50.916;4.356;2022-07-04T20:14:43;18.90;1.00
13638;DHT22;6892;50.916;4.356;2022-07-04T20:17:23;18.70;1.00
13638;DHT22;6892;50.916;4.356;2022-07-04T20:19:52;18.70;1.00
13638;DHT22;6892;50.916;4.356;2022-07-04T20:22:18;18.60;1.00
13638;DHT22;6892;50.916;4.356;2022-07-04T20:24:46;18.60;1.00
13638;DHT22;6892;50.916;4.356;2022-07-04T20:27:15;18.50;1.00
13638;DHT22;6892;50.916;4.356;2022-07-04T20:29:42;18.50;1.00
13638;DHT22;6892;50.916;4.356;2022-07-04T20:32:10;18.30;1.00
13638;DHT22;6892;50.916;4.356;2022-07-04T20:34:36;18.20;1.00
13638;DHT22;6892;50.916;4.356;2022-07-04T20:37:03;18.10;1.00
13638;DHT22;6892;50.916;4.356;2022-07-04T20:39:31;18.10;1.00
13638;DHT22;6892;50.916;4.356;2022-07-04T20:41:59;18.00;1.00
13638;DHT22;6892;50.916;4.356;2022-07-04T20:44:27;18.00;1.00
13638;DHT22;6892;50.916;4.356;2022-07-04T20:46:54;17.90;1.00
13638;DHT22;6892;50.916;4.356;2022-07-04T20:49:21;17.80;1.00
13638;DHT22;6892;50.916;4.356;2022-07-04T20:51:48;17.70;1.00
13638;DHT22;6892;50.916;4.356;2022-07-04T20:54:15;17.70;1.00
13638;DHT22;6892;50.916;4.356;2022-07-04T20:56:41;17.60;1.00
13638;DHT22;6892;50.916;4.356;2022-07-04T20:59:08;17.50;1.00
13638;DHT22;6892;50.916;4.356;2022-07-04T21:01:37;17.50;1.00
13638;DHT22;6892;50.916;4.356;2022-07-04T21:04:04;17.40;1.00
13638;DHT22;6892;50.916;4.356;2022-07-04T21:06:31;17.30;1.00
13638;DHT22;6892;50.916;4.356;2022-07-04T21:08:58;17.30;1.00
13638;DHT22;6892;50.916;4.356;2022-07-04T21:11:24;17.30;1.00
13638;DHT22;6892;50.916;4.356;2022-07-04T21:13:51;17.20;1.00
13638;DHT22;6892;50.916;4.356;2022-07-04T21:16:18;17.10;1.00
13638;DHT22;6892;50.916;4.356;2022-07-04T21:18:46;17.10;1.00
13638;DHT22;6892;50.916;4.356;2022-07-04T21:21:13;17.00;1.00
13638;DHT22;6892;50.916;4.356;2022-07-04T21:23:41;16.90;1.00
13638;DHT22;6892;50.916;4.356;2022-07-04T21:26:08;16.90;1.00
13638;DHT22;6892;50.916;4.356;2022-07-04T21:28:34;17.00;1.00
13638;DHT22;6892;50.916;4.356;2022-07-04T21:31:02;16.90;1.00
13638;DHT22;6892;50.916;4.356;2022-07-04T21:33:32;16.80;1.00
13638;DHT22;6892;50.916;4.356;2022-07-04T21:36:00;16.80;1.00
13638;DHT22;6892;50.916;4.356;2022-07-04T21:38:27;16.70;1.00
13638;DHT22;6892;50.916;4.356;2022-07-04T21:40:54;16.70;1.00
13638;DHT22;6892;50.916;4.356;2022-07-04T21:43:21;16.60;1.00
13638;DHT22;6892;50.916;4.356;2022-07-04T21:45:48;16.50;1.00
13638;DHT22;6892;50.916;4.356;2022-07-04T21:48:15;16.50;1.00
13638;DHT22;6892;50.916;4.356;2022-07-04T21:50:42;16.40;1.00
13638;DHT22;6892;50.916;4.356;2022-07-04T21:53:10;16.40;1.00
13638;DHT22;6892;50.916;4.356;2022-07-04T21:55:37;16.40;1.00
13638;DHT22;6892;50.916;4.356;2022-07-04T21:58:03;16.30;1.00
13638;DHT22;6892;50.916;4.356;2022-07-04T22:00:30;16.20;1.00
13638;DHT22;6892;50.916;4.356;2022-07-04T22:02:57;16.30;1.00
13638;DHT22;6892;50.916;4.356;2022-07-04T22:05:24;16.20;1.00
13638;DHT22;6892;50.916;4.356;2022-07-04T22:07:51;16.20;1.00
13638;DHT22;6892;50.916;4.356;2022-07-04T22:10:19;16.20;1.00
13638;DHT22;6892;50.916;4.356;2022-07-04T22:12:49;16.00;1.00
13638;DHT22;6892;50.916;4.356;2022-07-04T22:15:16;15.90;1.00
13638;DHT22;6892;50.916;4.356;2022-07-04T22:17:43;15.80;1.00
13638;DHT22;6892;50.916;4.356;2022-07-04T22:20:10;15.80;1.00
13638;DHT22;6892;50.916;4.356;2022-07-04T22:22:49;15.80;7.40
13638;DHT22;6892;50.916;4.356;2022-07-04T22:25:23;15.80;16.00
13638;DHT22;6892;50.916;4.356;2022-07-04T22:27:52;15.80;6.40
13638;DHT22;6892;50.916;4.356;2022-07-04T22:30:18;15.70;14.20
13638;DHT22;6892;50.916;4.356;2022-07-04T22:32:45;15.70;13.40
13638;DHT22;6892;50.916;4.356;2022-07-04T22:35:12;15.70;16.50
13638;DHT22;6892;50.916;4.356;2022-07-04T22:37:39;15.70;16.00
13638;DHT22;6892;50.916;4.356;2022-07-04T22:40:06;15.60;13.20
13638;DHT22;6892;50.916;4.356;2022-07-04T22:42:34;15.60;16.00
13638;DHT22;6892;50.916;4.356;2022-07-04T22:45:01;15.60;25.60
13638;DHT22;6892;50.916;4.356;2022-07-04T22:47:28;15.60;37.30
13638;DHT22;6892;50.916;4.356;2022-07-04T22:49:55;15.50;28.60
13638;DHT22;6892;50.916;4.356;2022-07-04T22:52:21;15.50;30.70
13638;DHT22;6892;50.916;4.356;2022-07-04T22:54:48;15.50;42.30
13638;DHT22;6892;50.916;4.356;2022-07-04T22:57:18;15.50;43.30
13638;DHT22;6892;50.916;4.356;2022-07-04T22:59:46;15.40;29.60
13638;DHT22;6892;50.916;4.356;2022-07-04T23:02:14;15.40;36.60
13638;DHT22;6892;50.916;4.356;2022-07-04T23:04:41;15.50;34.80
13638;DHT22;6892;50.916;4.356;2022-07-04T23:07:08;15.40;21.50
13638;DHT22;6892;50.916;4.356;2022-07-04T23:09:34;15.40;31.40
13638;DHT22;6892;50.916;4.356;2022-07-04T23:12:01;15.30;47.50
13638;DHT22;6892;50.916;4.356;2022-07-04T23:14:30;15.30;71.20
13638;DHT22;6892;50.916;4.356;2022-07-04T23:16:58;15.20;91.90
13638;DHT22;6892;50.916;4.356;2022-07-04T23:19:25;15.20;99.10
13638;DHT22;6892;50.916;4.356;2022-07-04T23:21:52;15.20;74.30
13638;DHT22;6892;50.916;4.356;2022-07-04T23:24:19;15.10;70.40
13638;DHT22;6892;50.916;4.356;2022-07-04T23:26:45;15.00;95.70
13638;DHT22;6892;50.916;4.356;2022-07-04T23:29:12;15.00;99.90
13638;DHT22;6892;50.916;4.356;2022-07-04T23:31:39;14.90;99.90
13638;DHT22;6892;50.916;4.356;2022-07-04T23:34:07;14.90;99.90
13638;DHT22;6892;50.916;4.356;2022-07-04T23:36:34;14.90;99.90
13638;DHT22;6892;50.916;4.356;2022-07-04T23:39:01;14.80;99.90
13638;DHT22;6892;50.916;4.356;2022-07-04T23:41:27;14.70;99.90
13638;DHT22;6892;50.916;4.356;2022-07-04T23:43:54;14.70;99.90
13638;DHT22;6892;50.916;4.356;2022-07-04T23:46:21;14.60;99.90
13638;DHT22;6892;50.916;4.356;2022-07-04T23:48:49;14.60;99.90
13638;DHT22;6892;50.916;4.356;2022-07-04T23:51:17;14.60;99.90
13638;DHT22;6892;50.916;4.356;2022-07-04T23:53:44;14.50;99.90
13638;DHT22;6892;50.916;4.356;2022-07-04T23:56:11;14.40;99.90
13638;DHT22;6892;50.916;4.356;2022-07-04T23:58:37;14.40;99.90
